Time;durP1;ratioP1;P1;durP2;ratioP2;P2;SDS_P1;SDS_P2;PMS_P1;PMS_P2;Temp;Humidity;BMP_temperature;BMP_pressure;BME280_temperature;BME280_humidity;BME280_pressure;Samples;Min_cycle;Max_cycle;Signal;HPM_P1;HPM_P2
2020/12/09 00:00:29;;;;;;;35.40;28.27;;;2.40;99.90;;;;;;5031217;28;20524;-80
2020/12/09 00:02:56;;;;;;;35.93;28.43;;;2.40;99.90;;;;;;5031326;28;20544;-79
2020/12/09 00:05:24;;;;;;;37.27;29.23;;;2.40;99.90;;;;;;5031456;28;20451;-79
2020/12/09 00:07:50;;;;;;;34.20;26.67;;;2.40;99.90;;;;;;5017271;28;20453;-81
2020/12/09 00:10:16;;;;;;;38.03;28.30;;;2.40;99.90;;;;;;5030840;28;20478;-80
2020/12/09 00:12:43;;;;;;;37.13;29.43;;;2.40;99.90;;;;;;5032550;28;20489;-78
2020/12/09 00:15:10;;;;;;;38.47;29.60;;;2.30;99.90;;;;;;5030962;28;20444;-80
2020/12/09 00:17:37;;;;;;;39.57;28.50;;;2.30;99.90;;;;;;5031179;28;20453;-81
2020/12/09 00:20:05;;;;;;;39.27;29.73;;;2.30;99.90;;;;;;5032048;28;20994;-80
2020/12/09 00:22:32;;;;;;;32.73;28.23;;;2.30;99.90;;;;;;5031101;28;20597;-80
2020/12/09 00:24:59;;;;;;;35.07;28.10;;;2.30;99.90;;;;;;5018434;28;20449;-80
2020/12/09 00:27:25;;;;;;;34.93;28.50;;;2.30;99.90;;;;;;5031003;28;20466;-80
2020/12/09 00:29:51;;;;;;;37.90;31.00;;;2.30;99.90;;;;;;5030702;28;20505;-80
2020/12/09 00:32:17;;;;;;;34.20;28.90;;;2.30;99.90;;;;;;5032417;28;21008;-79
2020/12/09 00:34:44;;;;;;;40.27;31.47;;;2.30;99.90;;;;;;5030875;28;20476;-80
2020/12/09 00:37:11;;;;;;;40.40;31.27;;;2.30;99.90;;;;;;5029587;28;20450;-80
2020/12/09 00:39:37;;;;;;;39.63;30.97;;;2.30;99.90;;;;;;5031943;28;20521;-79
2020/12/09 00:42:03;;;;;;;37.37;30.27;;;2.40;99.90;;;;;;5016689;28;20510;-80
2020/12/09 00:44:30;;;;;;;36.93;29.03;;;2.40;99.90;;;;;;5018043;28;20810;-78
2020/12/09 00:46:56;;;;;;;35.30;29.27;;;2.40;99.90;;;;;;5020528;28;20457;-80
2020/12/09 00:49:22;;;;;;;42.37;32.30;;;2.40;99.90;;;;;;5024804;28;20558;-80
2020/12/09 00:51:49;;;;;;;34.80;29.27;;;2.40;99.90;;;;;;5019026;28;20477;-80
2020/12/09 00:54:17;;;;;;;40.70;30.10;;;2.40;99.90;;;;;;5030430;28;20446;-79
2020/12/09 00:56:45;;;;;;;38.03;31.00;;;2.40;99.90;;;;;;5030474;28;20480;-80
2020/12/09 00:59:15;;;;;;;39.70;31.27;;;2.40;99.90;;;;;;5030211;28;20558;-80
2020/12/09 01:01:41;;;;;;;40.67;29.77;;;2.50;99.90;;;;;;5030712;28;20484;-80
2020/12/09 01:04:14;;;;;;;37.23;30.83;;;2.40;99.90;;;;;;5030651;28;20820;-80
2020/12/09 01:06:40;;;;;;;36.87;29.87;;;2.50;99.90;;;;;;5030530;28;20447;-79
2020/12/09 01:09:07;;;;;;;39.37;31.07;;;2.50;99.90;;;;;;5030390;28;20506;-80
2020/12/09 01:11:34;;;;;;;38.63;30.20;;;2.50;99.90;;;;;;5030294;28;20466;-80
2020/12/09 01:14:00;;;;;;;41.33;31.20;;;2.40;99.90;;;;;;5031754;28;20860;-80
2020/12/09 01:16:27;;;;;;;43.87;32.47;;;2.40;99.90;;;;;;5030754;28;20896;-80
2020/12/09 01:18:53;;;;;;;39.83;30.43;;;2.40;99.90;;;;;;5017395;28;20990;-80
2020/12/09 01:21:27;;;;;;;42.53;32.27;;;2.40;99.90;;;;;;5030480;28;20449;-80
2020/12/09 01:23:54;;;;;;;39.33;30.47;;;2.40;99.90;;;;;;5003532;28;20892;-80
2020/12/09 01:26:21;;;;;;;43.53;33.37;;;2.40;99.90;;;;;;5030188;28;20462;-79
2020/12/09 01:28:47;;;;;;;37.63;29.53;;;2.50;99.90;;;;;;5031216;28;20515;-80
2020/12/09 01:31:13;;;;;;;35.67;28.87;;;2.50;99.90;;;;;;5029969;28;20474;-78
2020/12/09 01:33:40;;;;;;;38.70;28.80;;;2.50;99.90;;;;;;5030124;28;20454;-80
2020/12/09 01:36:06;;;;;;;41.50;30.87;;;2.50;99.90;;;;;;5021638;28;20458;-80
2020/12/09 01:38:32;;;;;;;36.30;28.57;;;2.50;99.90;;;;;;5026026;28;20437;-80
2020/12/09 01:40:58;;;;;;;35.90;28.03;;;2.50;99.90;;;;;;5018105;28;20515;-80
2020/12/09 01:43:26;;;;;;;40.13;29.73;;;2.60;99.90;;;;;;5007451;28;20957;-80
2020/12/09 01:45:52;;;;;;;32.23;26.73;;;2.60;99.90;;;;;;5026709;28;20469;-80
2020/12/09 01:48:18;;;;;;;37.03;29.03;;;2.60;99.90;;;;;;5032044;28;20498;-80
2020/12/09 01:50:45;;;;;;;39.87;31.07;;;2.50;99.90;;;;;;5035185;28;20482;-79
2020/12/09 01:53:11;;;;;;;42.57;31.47;;;2.50;99.90;;;;;;5035437;28;20931;-80
2020/12/09 01:55:38;;;;;;;40.93;30.03;;;2.50;99.90;;;;;;5033805;28;20454;-80
2020/12/09 01:58:04;;;;;;;39.83;29.60;;;2.50;99.90;;;;;;5033718;28;20461;-80
2020/12/09 02:00:35;;;;;;;43.73;29.73;;;2.50;99.90;;;;;;5034826;28;20895;-79
2020/12/09 02:03:02;;;;;;;38.53;28.97;;;2.50;99.90;;;;;;5033838;28;20439;-80
2020/12/09 02:05:28;;;;;;;38.97;28.97;;;2.50;99.90;;;;;;5035538;28;20453;-80
2020/12/09 02:07:55;;;;;;;44.67;30.97;;;2.50;99.90;;;;;;5036131;28;20479;-80
2020/12/09 02:10:21;;;;;;;41.80;30.70;;;2.50;99.90;;;;;;5033652;28;20474;-80
2020/12/09 02:12:48;;;;;;;39.07;29.90;;;2.50;99.90;;;;;;5035277;28;21090;-80
2020/12/09 02:15:14;;;;;;;39.63;29.90;;;2.50;99.90;;;;;;5034155;28;20502;-80
2020/12/09 02:17:41;;;;;;;34.63;28.10;;;2.60;99.90;;;;;;5034047;28;20500;-80
2020/12/09 02:20:08;;;;;;;42.43;30.67;;;2.60;99.90;;;;;;5034780;28;20464;-80
2020/12/09 02:22:36;;;;;;;40.73;30.80;;;2.50;99.90;;;;;;5033561;28;20946;-80
2020/12/09 02:25:02;;;;;;;37.90;30.13;;;2.50;99.90;;;;;;5034865;28;20448;-80
2020/12/09 02:27:28;;;;;;;40.47;31.20;;;2.50;99.90;;;;;;5033803;28;20489;-80
2020/12/09 02:29:55;;;;;;;37.83;29.23;;;2.50;99.90;;;;;;5033454;28;20891;-80
2020/12/09 02:32:21;;;;;;;42.87;30.47;;;2.50;99.90;;;;;;5034975;28;20895;-80
2020/12/09 02:34:48;;;;;;;39.27;29.33;;;2.50;99.90;;;;;;5034784;28;20430;-80
2020/12/09 02:37:14;;;;;;;38.77;30.47;;;2.50;99.90;;;;;;5034506;28;21154;-79
2020/12/09 02:39:41;;;;;;;39.03;29.80;;;2.50;99.90;;;;;;5033376;28;20469;-81
2020/12/09 02:42:07;;;;;;;35.70;28.33;;;2.50;99.90;;;;;;5034774;28;20454;-80
2020/12/09 02:44:34;;;;;;;39.03;29.83;;;2.60;99.90;;;;;;5034711;28;20425;-80
2020/12/09 02:47:00;;;;;;;36.37;28.37;;;2.50;99.90;;;;;;5034361;28;20445;-79
2020/12/09 02:49:26;;;;;;;39.97;29.77;;;2.60;99.90;;;;;;5033437;28;20968;-80
2020/12/09 02:51:53;;;;;;;40.73;30.90;;;2.60;99.90;;;;;;5033439;28;20475;-80
2020/12/09 02:54:20;;;;;;;44.83;31.90;;;2.60;99.90;;;;;;5032933;28;20445;-80
2020/12/09 02:56:47;;;;;;;43.13;31.87;;;2.60;99.90;;;;;;5034430;28;20457;-80
2020/12/09 02:59:14;;;;;;;38.33;28.97;;;2.60;99.90;;;;;;5032940;28;20461;-80
2020/12/09 03:01:40;;;;;;;40.83;29.70;;;2.60;99.90;;;;;;5033275;28;20511;-80
2020/12/09 03:04:06;;;;;;;44.60;31.70;;;2.70;99.90;;;;;;5033124;28;20873;-80
2020/12/09 03:06:33;;;;;;;44.80;31.40;;;2.70;99.90;;;;;;5020756;28;20456;-80
2020/12/09 03:08:59;;;;;;;39.40;30.40;;;2.70;99.90;;;;;;5013648;28;20450;-80
2020/12/09 03:11:26;;;;;;;38.73;29.33;;;2.80;99.90;;;;;;5014698;28;20479;-78
2020/12/09 03:13:53;;;;;;;40.37;30.20;;;2.70;99.90;;;;;;5013227;28;20440;-80
2020/12/09 03:16:20;;;;;;;43.27;31.73;;;2.80;99.90;;;;;;5014199;28;20493;-80
2020/12/09 03:18:46;;;;;;;36.07;29.03;;;2.80;99.90;;;;;;5013719;28;20444;-79
2020/12/09 03:21:13;;;;;;;40.40;31.40;;;2.80;99.90;;;;;;5013990;28;20688;-80
2020/12/09 03:23:39;;;;;;;38.53;29.10;;;2.80;99.90;;;;;;5014334;28;20452;-81
2020/12/09 03:26:06;;;;;;;40.30;30.93;;;2.80;99.90;;;;;;5012150;28;20455;-77
2020/12/09 03:28:35;;;;;;;41.07;31.47;;;2.80;99.90;;;;;;5010854;28;20924;-78
2020/12/09 03:31:02;;;;;;;41.37;30.20;;;2.80;99.90;;;;;;5007127;28;20538;-78
2020/12/09 03:33:28;;;;;;;39.87;30.27;;;2.80;99.90;;;;;;5013425;28;20974;-79
2020/12/09 03:35:55;;;;;;;36.73;29.70;;;2.80;99.90;;;;;;5029192;28;20447;-78
2020/12/09 03:38:21;;;;;;;36.97;29.17;;;2.80;99.90;;;;;;5013436;28;21048;-78
2020/12/09 03:40:48;;;;;;;37.37;29.23;;;2.90;99.90;;;;;;4997404;28;20855;-78
2020/12/09 03:43:14;;;;;;;35.73;28.67;;;2.90;99.90;;;;;;5008666;28;20480;-78
2020/12/09 03:45:41;;;;;;;40.73;30.77;;;2.90;99.90;;;;;;5002705;28;20517;-79
2020/12/09 03:48:08;;;;;;;37.43;28.90;;;2.90;99.90;;;;;;5000281;28;20454;-79
2020/12/09 03:50:34;;;;;;;32.37;26.93;;;2.90;99.90;;;;;;5011689;28;20862;-78
2020/12/09 03:53:00;;;;;;;36.83;30.70;;;2.80;99.90;;;;;;5012501;28;20490;-78
2020/12/09 03:55:27;;;;;;;39.60;30.33;;;2.90;99.90;;;;;;5032342;28;20440;-79
2020/12/09 03:57:54;;;;;;;41.07;30.63;;;2.80;99.90;;;;;;5031356;28;20446;-78
2020/12/09 04:00:21;;;;;;;38.67;31.33;;;2.80;99.90;;;;;;5028672;28;20464;-77
2020/12/09 04:02:47;;;;;;;42.17;29.73;;;2.80;99.90;;;;;;5020582;28;20449;-79
2020/12/09 04:05:14;;;;;;;37.90;29.57;;;2.70;99.90;;;;;;5030506;28;20509;-78
2020/12/09 04:07:40;;;;;;;36.67;29.13;;;2.80;99.90;;;;;;5031974;28;20436;-78
2020/12/09 04:10:07;;;;;;;36.13;29.73;;;2.80;99.90;;;;;;5029875;28;21018;-77
2020/12/09 04:12:34;;;;;;;36.57;28.80;;;2.70;99.90;;;;;;5031810;28;21184;-78
2020/12/09 04:15:02;;;;;;;37.23;29.87;;;2.80;99.90;;;;;;5030342;28;20481;-78
2020/12/09 04:17:28;;;;;;;36.07;28.67;;;2.80;99.90;;;;;;5030421;28;20458;-77
2020/12/09 04:19:54;;;;;;;38.73;30.40;;;2.80;99.90;;;;;;5010524;28;20538;-79
2020/12/09 04:22:21;;;;;;;38.43;30.43;;;2.80;99.90;;;;;;5021331;28;20846;-80
2020/12/09 04:24:47;;;;;;;36.70;28.13;;;2.80;99.90;;;;;;5031363;28;20455;-78
2020/12/09 04:27:14;;;;;;;37.40;30.90;;;2.80;99.90;;;;;;5031497;28;21020;-78
2020/12/09 04:29:40;;;;;;;33.47;29.20;;;2.90;99.90;;;;;;5030049;28;20469;-79
2020/12/09 04:32:06;;;;;;;41.93;31.03;;;2.90;99.90;;;;;;5030100;28;20509;-78
2020/12/09 04:34:33;;;;;;;39.33;31.67;;;2.80;99.90;;;;;;5030378;28;20442;-80
2020/12/09 04:37:00;;;;;;;37.23;29.53;;;2.80;99.90;;;;;;5030330;28;20448;-79
2020/12/09 04:39:28;;;;;;;38.20;29.97;;;2.80;99.90;;;;;;5031714;28;20449;-79
2020/12/09 04:41:54;;;;;;;40.33;29.63;;;2.90;99.90;;;;;;5031574;28;20488;-78
2020/12/09 04:44:20;;;;;;;37.83;29.43;;;2.80;99.90;;;;;;5017008;28;20875;-77
2020/12/09 04:46:49;;;;;;;32.60;28.63;;;2.80;99.90;;;;;;5022205;28;20439;-76
2020/12/09 04:49:17;;;;;;;36.17;29.20;;;2.80;99.90;;;;;;5030592;28;21027;-76
2020/12/09 04:52:21;;;;;;;40.40;30.90;;;2.70;99.90;;;;;;5030666;28;20467;-77
2020/12/09 04:54:52;;;;;;;41.77;32.00;;;2.80;99.90;;;;;;5029302;28;20441;-77
2020/12/09 04:57:36;;;;;;;37.93;30.23;;;2.70;99.90;;;;;;5011158;28;20522;-77
2020/12/09 05:00:06;;;;;;;40.17;31.97;;;2.80;99.90;;;;;;5003898;28;20503;-77
2020/12/09 05:02:41;;;;;;;40.27;29.90;;;2.80;99.90;;;;;;5028558;28;20511;-76
2020/12/09 05:05:08;;;;;;;41.13;31.77;;;2.80;99.90;;;;;;5006430;28;20509;-78
2020/12/09 05:07:37;;;;;;;45.10;31.53;;;2.80;99.90;;;;;;5009086;28;20983;-77
2020/12/09 05:10:07;;;;;;;42.07;31.33;;;2.80;99.90;;;;;;5009942;28;21065;-78
2020/12/09 05:12:41;;;;;;;35.93;28.47;;;2.80;99.90;;;;;;5007423;28;20478;-76
2020/12/09 05:15:12;;;;;;;36.03;28.73;;;2.80;99.90;;;;;;5021314;28;20708;-77
2020/12/09 05:17:53;;;;;;;41.80;29.97;;;2.80;99.90;;;;;;5030197;28;20530;-77
2020/12/09 05:20:26;;;;;;;34.90;28.27;;;2.80;99.90;;;;;;5013705;28;20471;-76
2020/12/09 05:22:56;;;;;;;36.07;28.53;;;2.80;99.90;;;;;;5010795;28;20450;-78
2020/12/09 05:25:24;;;;;;;39.97;31.13;;;2.80;99.90;;;;;;5030806;28;20982;-77
2020/12/09 05:27:51;;;;;;;41.03;31.67;;;2.90;99.90;;;;;;5019623;28;20455;-80
2020/12/09 05:30:43;;;;;;;40.27;30.33;;;2.90;99.90;;;;;;5013324;28;20456;-79
2020/12/09 05:33:12;;;;;;;40.43;29.93;;;2.90;99.90;;;;;;5029433;28;20966;-80
2020/12/09 05:35:39;;;;;;;36.83;29.73;;;2.90;99.90;;;;;;5020640;28;20446;-77
2020/12/09 05:38:11;;;;;;;36.33;28.53;;;2.90;99.90;;;;;;5032940;28;20496;-77
2020/12/09 05:40:40;;;;;;;37.80;28.00;;;3.00;99.90;;;;;;5032603;28;20532;-78
2020/12/09 05:43:06;;;;;;;36.17;29.30;;;3.00;99.90;;;;;;5018453;28;20512;-77
2020/12/09 05:45:32;;;;;;;37.97;28.07;;;3.00;99.90;;;;;;5034692;28;20499;-79
2020/12/09 05:48:12;;;;;;;35.57;29.23;;;3.00;99.90;;;;;;5033478;28;20450;-80
2020/12/09 05:50:46;;;;;;;34.97;28.20;;;3.00;99.90;;;;;;5033424;28;20546;-79
2020/12/09 05:53:18;;;;;;;35.53;28.30;;;3.00;99.90;;;;;;5023225;28;20446;-79
2020/12/09 05:55:45;;;;;;;35.73;28.17;;;3.00;99.90;;;;;;5013670;28;20813;-79
2020/12/09 05:58:22;;;;;;;35.37;29.07;;;2.90;99.90;;;;;;5015129;28;20517;-80
2020/12/09 06:01:06;;;;;;;41.47;31.40;;;2.90;99.90;;;;;;5015682;28;20465;-78
2020/12/09 06:03:34;;;;;;;44.33;32.43;;;2.90;99.90;;;;;;5004568;28;20513;-79
2020/12/09 06:06:28;;;;;;;41.03;30.73;;;2.90;99.90;;;;;;5038566;28;20521;-79
2020/12/09 06:08:55;;;;;;;46.13;32.37;;;2.80;99.90;;;;;;4991352;28;20455;-80
2020/12/09 06:11:24;;;;;;;36.13;30.07;;;2.80;99.90;;;;;;5024041;28;20790;-80
2020/12/09 06:13:51;;;;;;;39.63;30.63;;;2.80;99.90;;;;;;5003001;28;20451;-78
2020/12/09 06:16:18;;;;;;;42.93;31.40;;;2.80;99.90;;;;;;5005031;28;20945;-79
2020/12/09 06:18:46;;;;;;;32.80;28.00;;;2.90;99.90;;;;;;5004711;28;20454;-79
2020/12/09 06:21:12;;;;;;;38.80;29.13;;;2.80;99.90;;;;;;4995446;28;20506;-80
2020/12/09 06:23:39;;;;;;;36.63;27.97;;;2.80;99.90;;;;;;5001351;28;20514;-80
2020/12/09 06:26:06;;;;;;;39.90;29.93;;;2.80;99.90;;;;;;4996703;28;20449;-80
2020/12/09 06:28:36;;;;;;;36.40;29.10;;;2.70;99.90;;;;;;5003120;28;20452;-81
2020/12/09 06:31:13;;;;;;;37.23;29.00;;;2.80;99.90;;;;;;4995014;28;20850;-81
2020/12/09 06:33:41;;;;;;;34.83;28.93;;;2.70;99.90;;;;;;4998328;28;20439;-79
2020/12/09 06:36:13;;;;;;;37.07;28.67;;;2.70;99.90;;;;;;5004712;28;20495;-80
2020/12/09 06:38:40;;;;;;;42.10;31.17;;;2.70;99.90;;;;;;5000211;28;20431;-79
2020/12/09 06:41:13;;;;;;;37.57;29.40;;;2.70;99.90;;;;;;4999567;28;20474;-81
2020/12/09 06:44:03;;;;;;;38.03;30.07;;;2.70;99.90;;;;;;5003268;28;20541;-79
2020/12/09 06:46:42;;;;;;;37.70;28.80;;;2.70;99.90;;;;;;4995894;28;20457;-79
2020/12/09 06:49:36;;;;;;;44.63;31.53;;;2.70;99.90;;;;;;4999595;28;21034;-80
2020/12/09 06:52:24;;;;;;;43.67;32.03;;;2.70;99.90;;;;;;5010583;28;20573;-79
2020/12/09 06:54:50;;;;;;;35.80;26.90;;;2.70;99.90;;;;;;5034356;28;20442;-80
2020/12/09 06:57:20;;;;;;;39.80;29.73;;;2.70;99.90;;;;;;5037711;28;20452;-81
2020/12/09 06:59:49;;;;;;;35.47;28.90;;;2.70;99.90;;;;;;5021704;28;20458;-81
2020/12/09 07:02:25;;;;;;;36.20;28.67;;;2.70;99.90;;;;;;5019229;28;20454;-82
2020/12/09 07:05:12;;;;;;;41.10;29.50;;;2.70;99.90;;;;;;5017400;28;20490;-81
2020/12/09 07:07:40;;;;;;;37.63;29.70;;;2.70;99.90;;;;;;5033288;28;20453;-80
2020/12/09 07:10:12;;;;;;;40.30;31.40;;;2.70;99.90;;;;;;5034351;28;20472;-81
2020/12/09 07:12:39;;;;;;;41.30;31.43;;;2.70;99.90;;;;;;5019785;28;20469;-78
2020/12/09 07:15:06;;;;;;;43.63;32.93;;;2.70;99.90;;;;;;5036382;28;20441;-80
2020/12/09 07:17:33;;;;;;;39.77;30.47;;;2.70;99.90;;;;;;5040328;28;20446;-81
2020/12/09 07:19:59;;;;;;;39.70;32.53;;;2.70;99.90;;;;;;5040343;28;20478;-81
2020/12/09 07:22:27;;;;;;;39.03;29.90;;;2.70;99.90;;;;;;5036498;28;20462;-80
2020/12/09 07:24:55;;;;;;;38.87;30.30;;;2.70;99.90;;;;;;5033633;28;20457;-81
2020/12/09 07:27:24;;;;;;;37.47;29.97;;;2.80;99.90;;;;;;5034697;28;20459;-80
2020/12/09 07:29:53;;;;;;;40.33;29.53;;;2.80;99.90;;;;;;5034987;28;20473;-80
2020/12/09 07:32:22;;;;;;;39.37;31.10;;;2.80;99.90;;;;;;5034026;28;20477;-82
2020/12/09 07:34:53;;;;;;;40.00;31.00;;;2.80;99.90;;;;;;5034592;28;20449;-80
2020/12/09 07:37:20;;;;;;;38.43;29.57;;;2.80;99.90;;;;;;5034592;28;20604;-80
2020/12/09 07:39:48;;;;;;;38.33;28.47;;;2.80;99.90;;;;;;5033489;28;20544;-81
2020/12/09 07:42:16;;;;;;;40.07;30.27;;;2.80;99.90;;;;;;5036031;28;20441;-80
2020/12/09 07:44:44;;;;;;;37.83;31.07;;;2.80;99.90;;;;;;5032959;28;20441;-80
2020/12/09 07:47:12;;;;;;;39.97;29.67;;;2.80;99.90;;;;;;5033784;28;20509;-80
2020/12/09 07:49:50;;;;;;;40.23;31.13;;;2.80;99.90;;;;;;5033812;28;20461;-81
2020/12/09 07:52:25;;;;;;;39.17;30.07;;;2.80;99.90;;;;;;5034751;28;20861;-80
2020/12/09 07:54:54;;;;;;;41.83;30.77;;;2.80;99.90;;;;;;5014305;28;20500;-81
2020/12/09 07:57:22;;;;;;;38.17;29.80;;;2.80;99.90;;;;;;5026505;28;20443;-80
2020/12/09 07:59:48;;;;;;;39.27;30.37;;;2.80;99.90;;;;;;5033553;28;20460;-80
2020/12/09 08:02:19;;;;;;;40.67;30.13;;;2.80;99.90;;;;;;5033501;28;20462;-80
2020/12/09 08:04:47;;;;;;;38.60;30.07;;;2.80;99.90;;;;;;5021740;28;20505;-79
2020/12/09 08:07:18;;;;;;;39.07;30.77;;;2.80;99.90;;;;;;5022108;28;20534;-78
2020/12/09 08:10:06;;;;;;;39.20;29.63;;;2.90;99.90;;;;;;5033810;28;20455;-81
2020/12/09 08:12:35;;;;;;;39.33;30.47;;;2.80;99.90;;;;;;5033208;28;20565;-79
2020/12/09 08:15:02;;;;;;;38.30;28.60;;;2.90;99.90;;;;;;5033720;28;20431;-79
2020/12/09 08:17:29;;;;;;;36.57;30.07;;;2.90;99.90;;;;;;5031492;28;20450;-79
2020/12/09 08:19:59;;;;;;;34.70;27.67;;;2.90;99.90;;;;;;5050718;22;20557;-78
2020/12/09 08:22:27;;;;;;;36.33;28.37;;;2.90;99.90;;;;;;5011409;28;20474;-78
2020/12/09 08:25:05;;;;;;;35.57;29.00;;;2.80;99.90;;;;;;5025803;28;20900;-78
2020/12/09 08:27:42;;;;;;;35.73;28.27;;;2.90;99.90;;;;;;5017766;28;20456;-77
2020/12/09 08:30:11;;;;;;;36.47;29.50;;;2.80;99.90;;;;;;5009852;28;20989;-78
2020/12/09 08:33:02;;;;;;;37.77;28.63;;;2.80;99.90;;;;;;5013860;28;20533;-77
2020/12/09 08:35:30;;;;;;;36.27;29.53;;;2.80;99.90;;;;;;5011908;28;20867;-78
2020/12/09 08:37:59;;;;;;;39.73;30.57;;;2.80;99.90;;;;;;5011827;28;20459;-77
2020/12/09 08:40:26;;;;;;;43.00;32.53;;;2.90;99.90;;;;;;5010669;28;20483;-78
2020/12/09 08:42:54;;;;;;;35.60;29.20;;;2.90;99.90;;;;;;5012194;28;20500;-78
2020/12/09 08:45:20;;;;;;;38.87;30.60;;;2.90;99.90;;;;;;5011999;28;20482;-77
2020/12/09 08:47:47;;;;;;;35.40;28.80;;;2.90;99.90;;;;;;5012938;28;20451;-77
2020/12/09 08:50:13;;;;;;;38.67;29.67;;;3.00;99.90;;;;;;5007423;28;20900;-79
2020/12/09 08:52:39;;;;;;;39.13;30.30;;;3.00;99.90;;;;;;4991490;28;20470;-78
2020/12/09 08:55:07;;;;;;;36.60;29.50;;;3.10;99.90;;;;;;4992732;28;20435;-79
2020/12/09 08:57:33;;;;;;;35.27;27.80;;;3.10;99.90;;;;;;4991840;28;20499;-79
2020/12/09 08:59:59;;;;;;;34.53;28.83;;;3.20;99.90;;;;;;4992224;28;21059;-78
2020/12/09 09:02:26;;;;;;;35.80;28.77;;;3.20;99.90;;;;;;4989779;28;20462;-78
2020/12/09 09:04:52;;;;;;;33.83;28.70;;;3.30;99.90;;;;;;4991838;28;20431;-78
2020/12/09 09:07:18;;;;;;;32.57;27.40;;;3.40;99.90;;;;;;4991442;28;20458;-77
2020/12/09 09:09:45;;;;;;;32.17;26.97;;;3.40;99.90;;;;;;5005985;28;21073;-78
2020/12/09 09:12:12;;;;;;;33.83;27.10;;;3.40;99.90;;;;;;4997804;28;20513;-78
2020/12/09 09:14:38;;;;;;;31.57;26.67;;;3.50;99.90;;;;;;5003318;28;20440;-77
2020/12/09 09:17:04;;;;;;;30.53;26.50;;;3.50;99.90;;;;;;5005602;28;20481;-77
2020/12/09 09:19:31;;;;;;;29.30;25.40;;;3.60;99.90;;;;;;4996885;28;20456;-78
2020/12/09 09:21:57;;;;;;;32.70;28.63;;;3.60;99.90;;;;;;4993894;28;20479;-78
2020/12/09 09:24:23;;;;;;;31.83;28.37;;;3.60;99.90;;;;;;5001954;28;20449;-78
2020/12/09 09:26:49;;;;;;;31.23;27.80;;;3.60;99.90;;;;;;4993566;28;20444;-78
2020/12/09 09:29:17;;;;;;;30.83;26.47;;;3.60;99.90;;;;;;4993173;28;20548;-78
2020/12/09 09:31:43;;;;;;;29.40;25.33;;;3.60;99.90;;;;;;4994297;28;20472;-79
2020/12/09 09:34:10;;;;;;;28.90;26.03;;;3.70;99.90;;;;;;4992536;28;20807;-77
2020/12/09 09:36:38;;;;;;;30.03;26.13;;;3.70;99.90;;;;;;4991107;28;20478;-78
2020/12/09 09:39:04;;;;;;;34.47;28.27;;;3.70;99.90;;;;;;4993501;28;20842;-77
2020/12/09 09:41:30;;;;;;;31.30;27.90;;;3.70;99.90;;;;;;4993972;28;20532;-77
2020/12/09 09:43:56;;;;;;;31.73;28.37;;;3.70;99.90;;;;;;4997148;28;20463;-77
2020/12/09 09:46:24;;;;;;;30.87;27.37;;;3.60;99.90;;;;;;4998184;28;20438;-77
2020/12/09 09:48:50;;;;;;;30.23;26.93;;;3.60;99.90;;;;;;4996576;28;20432;-77
2020/12/09 09:51:17;;;;;;;32.27;28.73;;;3.70;99.90;;;;;;4996146;28;20503;-77
2020/12/09 09:53:43;;;;;;;30.07;26.33;;;3.70;99.90;;;;;;4995858;28;20476;-77
2020/12/09 09:56:10;;;;;;;32.03;28.63;;;3.60;99.90;;;;;;5002700;28;20549;-78
2020/12/09 09:58:36;;;;;;;33.47;29.97;;;3.50;99.90;;;;;;4994826;28;20637;-78
2020/12/09 10:01:02;;;;;;;32.60;28.17;;;3.60;99.90;;;;;;4996026;28;20477;-78
2020/12/09 10:03:29;;;;;;;31.73;28.37;;;3.60;99.90;;;;;;4993151;28;20485;-77
2020/12/09 10:05:56;;;;;;;31.40;28.00;;;3.60;99.90;;;;;;4993257;28;20863;-78
2020/12/09 10:08:23;;;;;;;30.47;27.37;;;3.60;99.90;;;;;;4995497;28;20849;-78
2020/12/09 10:10:49;;;;;;;34.93;28.70;;;3.60;99.90;;;;;;4997964;28;20477;-78
2020/12/09 10:13:15;;;;;;;32.40;28.07;;;3.60;99.90;;;;;;4998439;28;20537;-78
2020/12/09 10:15:42;;;;;;;34.40;29.10;;;3.50;99.90;;;;;;5007126;28;20444;-78
2020/12/09 10:18:08;;;;;;;34.77;30.30;;;3.60;99.90;;;;;;4999512;28;20467;-78
2020/12/09 10:20:35;;;;;;;33.03;29.07;;;3.50;99.90;;;;;;4996506;28;20476;-77
2020/12/09 10:23:01;;;;;;;34.27;28.97;;;3.60;99.90;;;;;;4997703;28;20451;-77
2020/12/09 10:25:28;;;;;;;31.93;28.53;;;3.60;99.90;;;;;;4998420;28;20438;-77
2020/12/09 10:27:55;;;;;;;32.60;29.00;;;3.60;99.90;;;;;;4998588;28;20720;-77
2020/12/09 10:30:21;;;;;;;32.87;29.27;;;3.60;99.90;;;;;;4996693;28;20908;-77
2020/12/09 10:32:47;;;;;;;32.50;29.10;;;3.60;99.90;;;;;;4996892;28;20488;-77
2020/12/09 10:35:14;;;;;;;32.30;28.27;;;3.60;99.90;;;;;;5007763;28;20952;-78
2020/12/09 10:37:41;;;;;;;33.30;27.93;;;3.60;99.90;;;;;;5001099;28;20943;-77
2020/12/09 10:40:07;;;;;;;31.20;27.70;;;3.70;99.90;;;;;;4996850;28;20454;-77
2020/12/09 10:42:34;;;;;;;29.70;26.63;;;3.70;99.90;;;;;;4996448;28;20500;-77
2020/12/09 10:45:00;;;;;;;30.83;27.60;;;3.70;99.90;;;;;;4997235;28;20436;-77
2020/12/09 10:47:26;;;;;;;37.37;28.17;;;3.70;99.90;;;;;;4995123;28;20881;-77
2020/12/09 10:49:52;;;;;;;30.40;27.20;;;3.70;99.90;;;;;;4996348;28;20986;-78
2020/12/09 10:52:19;;;;;;;31.67;28.07;;;3.80;99.90;;;;;;4996156;28;20531;-78
2020/12/09 10:54:46;;;;;;;31.07;27.87;;;3.80;99.90;;;;;;4995308;28;20521;-77
2020/12/09 10:57:13;;;;;;;29.07;26.17;;;3.80;99.90;;;;;;4995625;28;20437;-78
2020/12/09 10:59:39;;;;;;;31.83;28.40;;;3.80;99.90;;;;;;4994858;28;20596;-77
2020/12/09 11:02:05;;;;;;;29.53;26.63;;;3.80;99.90;;;;;;5009697;28;20445;-77
2020/12/09 11:04:32;;;;;;;31.77;28.37;;;3.80;99.90;;;;;;4996254;28;20445;-77
2020/12/09 11:06:58;;;;;;;30.10;26.90;;;3.70;99.90;;;;;;4994599;28;20509;-78
2020/12/09 11:09:24;;;;;;;30.70;27.40;;;3.80;99.90;;;;;;4995929;28;20499;-77
2020/12/09 11:11:53;;;;;;;30.50;27.30;;;3.80;99.90;;;;;;5011112;28;20478;-77
2020/12/09 11:14:20;;;;;;;29.33;26.33;;;3.80;99.90;;;;;;4995306;28;20506;-77
2020/12/09 11:16:46;;;;;;;30.90;27.70;;;3.70;99.90;;;;;;4994995;28;20515;-77
2020/12/09 11:19:13;;;;;;;29.80;26.63;;;3.70;99.90;;;;;;4996222;28;20935;-77
2020/12/09 11:21:39;;;;;;;28.90;25.80;;;3.60;99.90;;;;;;4995351;28;20503;-77
2020/12/09 11:24:05;;;;;;;30.63;27.33;;;3.60;99.90;;;;;;4994762;28;20450;-77
2020/12/09 11:26:32;;;;;;;32.50;29.10;;;3.60;99.90;;;;;;4994139;28;20478;-77
2020/12/09 11:28:59;;;;;;;31.37;27.77;;;3.50;99.90;;;;;;4994564;28;20438;-77
2020/12/09 11:31:26;;;;;;;30.90;27.57;;;3.60;99.90;;;;;;4994800;28;20502;-77
2020/12/09 11:33:52;;;;;;;33.10;28.37;;;3.60;99.90;;;;;;4994810;28;20584;-77
2020/12/09 11:36:22;;;;;;;32.07;28.37;;;3.60;99.90;;;;;;4993536;28;20510;-77
2020/12/09 11:38:48;;;;;;;34.53;28.33;;;3.50;99.90;;;;;;4997329;28;20479;-78
2020/12/09 11:41:15;;;;;;;34.47;28.77;;;3.50;99.90;;;;;;4993525;28;20467;-78
2020/12/09 11:43:44;;;;;;;29.63;26.57;;;3.60;99.90;;;;;;4994294;28;20854;-78
2020/12/09 11:46:11;;;;;;;30.10;26.80;;;3.60;99.90;;;;;;4998023;28;20442;-78
2020/12/09 11:48:38;;;;;;;31.17;27.83;;;3.60;99.90;;;;;;4994920;28;20450;-78
2020/12/09 11:51:04;;;;;;;33.07;27.63;;;3.60;99.90;;;;;;4992911;28;20525;-78
2020/12/09 11:53:31;;;;;;;31.77;28.37;;;3.60;99.90;;;;;;4995420;28;20530;-78
2020/12/09 11:55:58;;;;;;;30.30;27.20;;;3.60;99.90;;;;;;4995892;28;20472;-78
2020/12/09 11:58:24;;;;;;;31.03;26.73;;;3.50;99.90;;;;;;4993723;28;20445;-78
2020/12/09 12:00:50;;;;;;;31.53;28.27;;;3.50;99.90;;;;;;4992434;28;20464;-78
2020/12/09 12:03:17;;;;;;;30.60;27.27;;;3.50;99.90;;;;;;4992962;28;20445;-77
2020/12/09 12:05:46;;;;;;;32.70;29.30;;;3.50;99.90;;;;;;4994328;28;20469;-78
2020/12/09 12:08:13;;;;;;;30.93;27.73;;;3.50;99.90;;;;;;4994075;28;20538;-77
2020/12/09 12:10:39;;;;;;;36.70;28.40;;;3.50;99.90;;;;;;4995025;28;20499;-77
2020/12/09 12:13:05;;;;;;;31.50;28.10;;;3.60;99.90;;;;;;4994652;28;20533;-78
2020/12/09 12:15:31;;;;;;;30.07;27.03;;;3.60;99.90;;;;;;4995283;28;20466;-77
2020/12/09 12:17:58;;;;;;;31.60;28.23;;;3.60;99.90;;;;;;4995172;28;20446;-77
2020/12/09 12:20:25;;;;;;;31.57;28.40;;;3.50;99.90;;;;;;5004014;28;20468;-77
2020/12/09 12:22:51;;;;;;;31.10;26.53;;;3.50;99.90;;;;;;5000434;28;20960;-79
2020/12/09 12:25:17;;;;;;;31.40;28.17;;;3.50;99.90;;;;;;4993478;28;20501;-78
2020/12/09 12:27:44;;;;;;;32.43;28.83;;;3.50;99.90;;;;;;4993784;28;20541;-78
2020/12/09 12:30:11;;;;;;;33.10;29.50;;;3.50;99.90;;;;;;4993754;28;20471;-78
2020/12/09 12:32:38;;;;;;;31.97;28.57;;;3.50;99.90;;;;;;4993921;28;20472;-78
2020/12/09 12:35:04;;;;;;;31.67;28.23;;;3.50;99.90;;;;;;4994746;28;20435;-77
2020/12/09 12:37:35;;;;;;;32.63;28.93;;;3.50;99.90;;;;;;5003806;28;20470;-78
2020/12/09 12:40:02;;;;;;;31.33;28.07;;;3.50;99.90;;;;;;4999734;28;20454;-78